Time;durP1;ratioP1;P1;durP2;ratioP2;P2;SDS_P1;SDS_P2;PMS_P1;PMS_P2;Temp;Humidity;BMP_temperature;BMP_pressure;BME280_temperature;BME280_humidity;BME280_pressure;Samples;Min_cycle;Max_cycle;Signal;HPM_P1;HPM_P2
2022/04/03 06:38:34;;;;;;;10.77;8.73;;;-1.20;99.90;;;;;;5072160;28;20615;-78
2022/04/03 06:41:00;;;;;;;19.77;10.43;;;-1.20;99.90;;;;;;5072491;28;20411;-79
2022/04/03 06:43:28;;;;;;;16.17;11.27;;;-1.00;99.90;;;;;;5071610;28;20185;-79
2022/04/03 06:45:55;;;;;;;16.37;10.83;;;-0.90;99.90;;;;;;5072824;28;20407;-79
2022/04/03 06:48:22;;;;;;;15.57;10.23;;;-0.80;99.90;;;;;;5071310;28;20450;-78
2022/04/03 06:50:48;;;;;;;16.57;11.13;;;-0.80;99.90;;;;;;5072010;28;20434;-78
2022/04/03 06:53:13;;;;;;;14.20;10.87;;;-0.80;99.90;;;;;;5070991;28;20406;-79
2022/04/03 06:55:39;;;;;;;15.60;10.90;;;-0.80;99.90;;;;;;5072487;28;20176;-79
2022/04/03 06:58:05;;;;;;;14.07;11.03;;;-1.10;99.90;;;;;;5070910;28;20821;-78
2022/04/03 07:00:31;;;;;;;13.33;10.77;;;-1.20;99.90;;;;;;5071678;28;20169;-78
2022/04/03 07:02:56;;;;;;;13.20;9.73;;;-1.20;99.90;;;;;;5071300;28;20235;-80
2022/04/03 07:05:23;;;;;;;13.07;9.47;;;-1.10;99.90;;;;;;5074569;28;20172;-80
2022/04/03 07:07:52;;;;;;;10.43;8.90;;;-1.00;99.90;;;;;;5075200;28;20240;-80
2022/04/03 07:10:19;;;;;;;15.33;8.90;;;-1.00;99.90;;;;;;5074105;28;20952;-80
2022/04/03 07:12:44;;;;;;;16.20;9.97;;;-0.90;99.90;;;;;;5073895;28;20468;-80
2022/04/03 07:15:12;;;;;;;12.30;9.13;;;-0.80;99.90;;;;;;5075256;28;20420;-80
2022/04/03 07:17:41;;;;;;;10.90;8.43;;;-0.70;99.90;;;;;;5074102;28;20205;-77
2022/04/03 07:20:08;;;;;;;9.40;7.77;;;-0.90;99.90;;;;;;5070209;28;20465;-77
2022/04/03 07:22:34;;;;;;;15.23;9.23;;;-0.90;99.90;;;;;;5069708;28;20408;-77
2022/04/03 07:25:00;;;;;;;11.23;9.00;;;-0.90;99.90;;;;;;5070700;28;20456;-78
2022/04/03 07:27:27;;;;;;;10.60;7.83;;;-0.80;99.90;;;;;;5072019;28;20252;-78
2022/04/03 07:29:53;;;;;;;11.83;8.67;;;-0.90;99.90;;;;;;5071933;28;20241;-78
2022/04/03 07:32:19;;;;;;;10.43;8.33;;;-0.90;99.90;;;;;;5071143;28;20504;-78
2022/04/03 07:34:44;;;;;;;14.63;9.57;;;-0.70;99.90;;;;;;5073104;28;20264;-80
2022/04/03 07:37:10;;;;;;;16.60;10.63;;;-1.00;99.90;;;;;;5074490;28;20209;-80
2022/04/03 07:39:35;;;;;;;10.53;8.90;;;-1.00;99.90;;;;;;5073433;28;20180;-81
2022/04/03 07:42:03;;;;;;;13.43;8.87;;;-1.00;99.90;;;;;;5074826;28;20631;-81
2022/04/03 07:44:29;;;;;;;11.23;9.10;;;-1.10;99.90;;;;;;5073222;28;20227;-80
2022/04/03 07:46:55;;;;;;;13.13;8.97;;;-1.20;99.90;;;;;;5072897;28;20843;-80
2022/04/03 07:49:21;;;;;;;10.60;9.40;;;-1.00;99.90;;;;;;5063752;28;20448;-80
2022/04/03 07:51:47;;;;;;;10.43;8.07;;;-0.90;99.90;;;;;;5061755;28;20514;-81
2022/04/03 07:54:14;;;;;;;11.17;7.90;;;-0.90;99.90;;;;;;5061451;28;20430;-81
2022/04/03 07:56:40;;;;;;;10.13;8.23;;;;;;;;;;5061980;28;20276;-81
2022/04/03 07:59:06;;;;;;;13.00;9.03;;;;;;;;;;5060059;28;20772;-80
2022/04/03 08:01:35;;;;;;;9.13;7.60;;;-0.40;99.90;;;;;;5058647;28;20416;-80
2022/04/03 08:04:01;;;;;;;9.33;7.63;;;-0.40;99.90;;;;;;5063401;28;20419;-77
2022/04/03 08:06:27;;;;;;;12.23;8.27;;;-0.30;99.90;;;;;;5066875;28;20796;-78
2022/04/03 08:08:53;;;;;;;9.57;7.37;;;-0.30;99.90;;;;;;5066693;28;20492;-81
2022/04/03 08:11:20;;;;;;;9.33;8.13;;;-0.20;99.90;;;;;;5061307;28;20192;-81
2022/04/03 08:13:47;;;;;;;10.60;7.80;;;-0.20;99.90;;;;;;5059210;28;20188;-81
2022/04/03 08:16:16;;;;;;;11.27;7.93;;;-0.10;99.90;;;;;;5063167;28;20459;-78
2022/04/03 08:18:44;;;;;;;13.60;9.03;;;-0.10;99.90;;;;;;5038911;28;20472;-78
2022/04/03 08:21:12;;;;;;;14.37;9.00;;;-0.10;99.90;;;;;;5039123;28;20482;-77
2022/04/03 08:23:38;;;;;;;15.87;8.73;;;-0.20;99.90;;;;;;5056525;28;20447;-77
2022/04/03 08:26:06;;;;;;;11.07;7.60;;;-0.20;99.90;;;;;;5038481;28;20428;-77
2022/04/03 08:28:34;;;;;;;8.73;7.40;;;-0.10;99.90;;;;;;5054548;28;20436;-77
2022/04/03 08:31:01;;;;;;;9.13;7.10;;;-0.10;99.90;;;;;;5037785;28;20431;-77
2022/04/03 08:33:28;;;;;;;9.10;7.87;;;-0.20;99.90;;;;;;5055581;28;20408;-79
2022/04/03 08:35:57;;;;;;;12.73;8.17;;;-0.30;99.90;;;;;;5053950;28;20427;-76
2022/04/03 08:38:29;;;;;;;9.40;8.23;;;-0.10;99.90;;;;;;5061877;28;20527;-76
2022/04/03 08:40:58;;;;;;;12.00;8.33;;;0.00;99.90;;;;;;5073734;28;20802;-76
2022/04/03 08:43:25;;;;;;;10.00;7.70;;;0.20;99.90;;;;;;5073551;28;20506;-76
2022/04/03 08:45:53;;;;;;;8.13;7.23;;;0.30;99.90;;;;;;5057028;28;20467;-76
2022/04/03 08:48:22;;;;;;;8.37;7.13;;;0.30;99.90;;;;;;5074728;28;20439;-76
2022/04/03 08:50:51;;;;;;;10.00;8.20;;;0.40;99.90;;;;;;5074641;28;20784;-76
2022/04/03 08:53:23;;;;;;;12.70;6.97;;;0.50;99.90;;;;;;5074487;28;20417;-76
2022/04/03 08:55:49;;;;;;;8.87;7.77;;;0.80;99.90;;;;;;5074620;28;20758;-75
2022/04/03 08:58:18;;;;;;;10.43;8.17;;;0.80;99.90;;;;;;5073439;28;20463;-75
2022/04/03 09:00:44;;;;;;;12.40;8.30;;;1.00;99.90;;;;;;5074352;28;20930;-78
2022/04/03 09:03:12;;;;;;;10.97;9.10;;;0.90;99.90;;;;;;5060084;28;20416;-76
2022/04/03 09:05:45;;;;;;;10.53;7.90;;;0.90;99.90;;;;;;5054062;28;20474;-76
2022/04/03 09:08:13;;;;;;;14.07;8.80;;;0.90;99.90;;;;;;5053406;28;20949;-76
2022/04/03 09:10:44;;;;;;;12.60;9.07;;;0.90;99.90;;;;;;5052861;28;20921;-76
2022/04/03 09:13:10;;;;;;;16.27;8.53;;;1.00;99.90;;;;;;5053154;28;20404;-76
2022/04/03 09:15:37;;;;;;;9.30;7.97;;;0.70;99.90;;;;;;5053146;28;20481;-77
2022/04/03 09:18:06;;;;;;;11.93;9.23;;;0.30;99.90;;;;;;5054000;28;20601;-76
2022/04/03 09:20:36;;;;;;;16.07;10.40;;;0.40;99.90;;;;;;5052927;28;20427;-76
2022/04/03 09:23:04;;;;;;;13.97;9.87;;;0.40;99.90;;;;;;5053863;28;20401;-76
2022/04/03 09:25:35;;;;;;;12.87;9.20;;;0.40;99.90;;;;;;5055075;28;20408;-76
2022/04/03 09:28:05;;;;;;;8.83;7.93;;;0.30;99.90;;;;;;5054681;28;20443;-77
2022/04/03 09:30:43;;;;;;;11.27;9.30;;;0.30;99.90;;;;;;5054821;28;20404;-76
2022/04/03 09:33:15;;;;;;;11.13;7.60;;;0.50;99.90;;;;;;5058289;28;20396;-78
2022/04/03 09:36:01;;;;;;;11.70;9.37;;;0.70;99.90;;;;;;5075094;28;20518;-78
2022/04/03 09:38:35;;;;;;;9.77;7.73;;;0.80;99.90;;;;;;5074755;28;20471;-78
2022/04/03 09:41:02;;;;;;;9.20;8.30;;;0.90;99.90;;;;;;5062699;28;20449;-79
2022/04/03 09:43:38;;;;;;;11.67;9.57;;;1.30;99.90;;;;;;5069407;28;20442;-76
2022/04/03 09:46:10;;;;;;;10.07;8.80;;;1.80;99.90;;;;;;5043086;28;20176;-75
2022/04/03 09:48:44;;;;;;;11.17;9.33;;;3.40;99.90;;;;;;5063130;28;20440;-76
2022/04/03 09:51:22;;;;;;;7.40;6.70;;;4.90;99.90;;;;;;5066228;28;20916;-77
2022/04/03 09:53:58;;;;;;;8.47;6.73;;;5.60;99.90;;;;;;5055734;28;20417;-77
2022/04/03 09:56:24;;;;;;;6.67;5.87;;;5.60;99.90;;;;;;5065329;28;20638;-77
2022/04/03 09:59:04;;;;;;;6.83;6.13;;;5.60;99.90;;;;;;5063036;28;20547;-76
2022/04/03 10:01:40;;;;;;;8.70;6.47;;;5.70;99.90;;;;;;5057295;28;20268;-77
2022/04/03 10:04:09;;;;;;;7.97;6.07;;;5.80;99.90;;;;;;5025985;28;20180;-77
2022/04/03 10:06:40;;;;;;;6.80;5.97;;;6.60;99.90;;;;;;5064641;28;20193;-77
2022/04/03 10:09:11;;;;;;;14.17;9.00;;;6.80;99.90;;;;;;5066544;28;20250;-77
2022/04/03 10:11:38;;;;;;;11.23;9.00;;;6.70;99.90;;;;;;5056252;28;20628;-78
2022/04/03 10:14:07;;;;;;;11.73;7.80;;;5.80;99.90;;;;;;5053623;28;20571;-79
2022/04/03 10:16:34;;;;;;;10.43;7.30;;;5.20;99.90;;;;;;5065394;28;20223;-79
2022/04/03 10:19:00;;;;;;;8.83;5.70;;;3.80;99.90;;;;;;5065770;28;20197;-80
2022/04/03 10:21:36;;;;;;;9.30;6.43;;;2.80;99.90;;;;;;5055721;28;20182;-80
2022/04/03 10:24:20;;;;;;;6.93;6.23;;;2.30;99.90;;;;;;5059808;28;20204;-80
2022/04/03 10:27:05;;;;;;;7.33;6.37;;;2.10;99.90;;;;;;5064353;28;20181;-79
2022/04/03 10:29:37;;;;;;;7.30;6.57;;;2.40;99.90;;;;;;5071847;28;20208;-80
2022/04/03 10:32:04;;;;;;;7.73;6.90;;;2.30;99.90;;;;;;5060988;28;20639;-79
2022/04/03 10:34:32;;;;;;;8.73;7.83;;;2.30;99.90;;;;;;5076543;28;20265;-79
2022/04/03 10:36:58;;;;;;;9.13;7.33;;;2.30;99.90;;;;;;5044164;28;20221;-78
2022/04/03 10:39:28;;;;;;;7.50;6.70;;;2.10;99.90;;;;;;5070184;28;20212;-78
2022/04/03 10:42:20;;;;;;;12.30;7.67;;;2.00;99.90;;;;;;5060596;28;20190;-78
2022/04/03 10:45:11;;;;;;;7.70;6.90;;;2.20;99.90;;;;;;5065423;28;20274;-79
2022/04/03 10:47:41;;;;;;;20.43;18.60;;;2.40;99.90;;;;;;5074617;28;20281;-80
2022/04/03 10:50:08;;;;;;;10.70;8.60;;;1.70;99.90;;;;;;5076131;28;20247;-80
2022/04/03 10:52:38;;;;;;;8.77;7.97;;;1.50;99.90;;;;;;5073823;28;20610;-79
2022/04/03 10:55:27;;;;;;;8.60;7.70;;;1.90;99.90;;;;;;5073937;28;20273;-79
2022/04/03 10:58:15;;;;;;;8.47;7.50;;;2.20;99.90;;;;;;5075198;28;20237;-78
2022/04/03 11:00:43;;;;;;;8.57;7.67;;;2.50;99.90;;;;;;5056850;28;20196;-78
2022/04/03 11:03:15;;;;;;;7.60;6.90;;;2.80;99.90;;;;;;5073644;28;20183;-79
2022/04/03 11:05:43;;;;;;;7.33;6.60;;;2.90;99.90;;;;;;5075411;28;20179;-79
2022/04/03 11:08:09;;;;;;;7.37;6.67;;;2.80;99.90;;;;;;5073802;28;20253;-79
2022/04/03 11:10:54;;;;;;;8.87;6.83;;;2.90;99.90;;;;;;5075173;28;20641;-78
2022/04/03 11:13:37;;;;;;;10.47;7.07;;;3.30;99.90;;;;;;5074971;28;20164;-79
2022/04/03 11:16:13;;;;;;;7.10;6.33;;;3.60;99.90;;;;;;5076973;28;20178;-79
2022/04/03 11:18:48;;;;;;;6.50;5.90;;;3.50;99.90;;;;;;5077101;28;20219;-79
2022/04/03 11:21:28;;;;;;;7.30;6.60;;;3.40;99.90;;;;;;5075192;28;20176;-79
2022/04/03 11:24:06;;;;;;;7.23;5.90;;;3.30;99.90;;;;;;5059715;28;20204;-79
2022/04/03 11:26:34;;;;;;;6.67;6.07;;;2.50;99.90;;;;;;5072130;28;20635;-79
2022/04/03 11:29:02;;;;;;;8.37;6.17;;;2.00;99.90;;;;;;5060526;28;20264;-79
2022/04/03 11:31:31;;;;;;;7.60;6.43;;;1.80;99.90;;;;;;5075369;28;20239;-79
2022/04/03 11:33:59;;;;;;;7.80;5.93;;;1.50;99.90;;;;;;5046647;28;20244;-79
2022/04/03 11:36:33;;;;;;;7.00;6.30;;;1.60;99.90;;;;;;5070890;28;20185;-79
2022/04/03 11:39:01;;;;;;;7.00;6.37;;;1.40;99.90;;;;;;5058569;28;20201;-80
2022/04/03 11:41:28;;;;;;;5.63;5.13;;;1.00;99.90;;;;;;5074957;28;20263;-80
2022/04/03 11:44:07;;;;;;;7.17;6.57;;;1.20;99.90;;;;;;5061693;28;20625;-79
2022/04/03 11:46:48;;;;;;;6.50;5.90;;;1.40;99.90;;;;;;5070199;28;20177;-80
2022/04/03 11:49:15;;;;;;;6.47;5.87;;;1.20;99.90;;;;;;5072910;28;20869;-79
2022/04/03 11:51:45;;;;;;;6.50;5.83;;;1.30;99.90;;;;;;5062130;28;20420;-80
2022/04/03 11:54:13;;;;;;;8.93;6.50;;;1.40;99.90;;;;;;5073158;28;20182;-80
2022/04/03 11:56:43;;;;;;;29.67;24.73;;;1.70;99.90;;;;;;5070844;28;20443;-80
2022/04/03 11:59:14;;;;;;;10.93;9.70;;;2.00;99.90;;;;;;5081830;28;20229;-80
2022/04/03 12:01:49;;;;;;;9.07;6.80;;;2.20;99.90;;;;;;5069191;28;20184;-80
2022/04/03 12:04:21;;;;;;;9.27;7.63;;;1.80;99.90;;;;;;5082270;28;20853;-80
2022/04/03 12:06:57;;;;;;;10.50;6.50;;;1.80;99.90;;;;;;5079983;28;20769;-82
2022/04/03 12:09:24;;;;;;;6.10;5.40;;;1.90;99.90;;;;;;5075623;28;20269;-84
2022/04/03 12:11:53;;;;;;;8.77;5.43;;;1.70;99.90;;;;;;5076980;28;20801;-79
2022/04/03 12:14:25;;;;;;;6.80;5.87;;;1.40;99.90;;;;;;5077318;28;20781;-79
2022/04/03 12:16:58;;;;;;;7.23;5.80;;;1.00;99.90;;;;;;5065769;28;20630;-80
2022/04/03 12:19:25;;;;;;;6.93;5.27;;;1.00;99.90;;;;;;5058335;28;20189;-79
2022/04/03 12:21:56;;;;;;;6.40;5.80;;;0.80;99.90;;;;;;5058013;28;20412;-80
2022/04/03 12:24:34;;;;;;;7.87;5.83;;;1.00;99.90;;;;;;5065605;28;20411;-79
2022/04/03 12:27:18;;;;;;;6.20;5.03;;;1.10;99.90;;;;;;5077224;28;20539;-80
2022/04/03 12:29:52;;;;;;;8.40;6.07;;;1.50;99.90;;;;;;5076984;28;20453;-79
2022/04/03 12:32:42;;;;;;;6.23;5.50;;;1.90;99.90;;;;;;5069816;28;20423;-79
2022/04/03 12:35:11;;;;;;;6.20;5.60;;;2.30;99.90;;;;;;5056687;28;20185;-79
2022/04/03 12:37:43;;;;;;;5.87;5.37;;;2.60;99.90;;;;;;5056118;28;20563;-79
2022/04/03 12:40:11;;;;;;;10.00;6.53;;;3.20;99.90;;;;;;5058344;28;20207;-80
2022/04/03 12:42:37;;;;;;;8.07;7.03;;;3.90;99.90;;;;;;5058549;28;20470;-80
2022/04/03 12:45:20;;;;;;;8.13;6.10;;;4.30;99.90;;;;;;5062169;28;20173;-80
2022/04/03 12:47:55;;;;;;;6.57;5.40;;;4.10;99.90;;;;;;5058745;28;20198;-81
2022/04/03 12:50:42;;;;;;;6.53;5.07;;;5.20;99.90;;;;;;5058596;28;20268;-80
2022/04/03 12:53:16;;;;;;;5.60;4.30;;;6.10;99.90;;;;;;5060538;28;20172;-80
2022/04/03 12:55:47;;;;;;;5.83;4.50;;;5.60;99.90;;;;;;5060004;28;20189;-80
2022/04/03 12:58:25;;;;;;;5.07;4.57;;;5.30;99.90;;;;;;5062401;28;20206;-79
2022/04/03 13:00:58;;;;;;;5.30;4.70;;;5.20;99.90;;;;;;5062459;28;20146;-79
2022/04/03 13:03:27;;;;;;;6.83;5.50;;;4.90;99.90;;;;;;5065062;28;20169;-84
2022/04/03 13:06:03;;;;;;;5.10;4.53;;;4.30;99.90;;;;;;5065143;28;20173;-84
2022/04/03 13:08:40;;;;;;;4.50;4.03;;;3.60;99.90;;;;;;5065560;28;20204;-84
2022/04/03 13:11:06;;;;;;;6.83;5.87;;;4.00;99.90;;;;;;5064564;28;20183;-83
2022/04/03 13:13:35;;;;;;;25.40;16.17;;;3.70;99.90;;;;;;5063679;28;20185;-82
2022/04/03 13:16:02;;;;;;;22.77;13.57;;;3.10;99.90;;;;;;5063398;28;20183;-82
2022/04/03 13:18:27;;;;;;;12.13;7.80;;;2.80;99.90;;;;;;5063380;28;20209;-82
2022/04/03 13:20:59;;;;;;;4.17;3.83;;;3.60;99.90;;;;;;5062969;28;20705;-81
2022/04/03 13:23:26;;;;;;;6.20;5.60;;;4.40;99.90;;;;;;5063185;28;20530;-81
2022/04/03 13:25:52;;;;;;;4.80;4.20;;;5.20;99.90;;;;;;5062675;28;20169;-82
2022/04/03 13:28:19;;;;;;;8.40;4.90;;;6.30;99.90;;;;;;5062765;28;20204;-82
2022/04/03 13:30:49;;;;;;;6.57;5.13;;;6.70;99.90;;;;;;5062572;28;20178;-80
2022/04/03 13:33:15;;;;;;;5.00;4.20;;;7.20;99.90;;;;;;5060019;28;20186;-80
2022/04/03 13:35:41;;;;;;;4.33;3.90;;;7.80;99.90;;;;;;5061134;28;20173;-80
2022/04/03 13:38:08;;;;;;;5.17;4.20;;;8.20;99.90;;;;;;5066492;28;20217;-80
2022/04/03 13:40:35;;;;;;;3.57;3.27;;;7.30;99.20;;;;;;5070985;28;20177;-80
2022/04/03 13:43:10;;;;;;;4.43;3.40;;;6.10;99.90;;;;;;5073476;28;20174;-82
2022/04/03 13:46:00;;;;;;;4.10;3.47;;;5.50;99.90;;;;;;5062074;28;20175;-81
2022/04/03 13:48:37;;;;;;;5.30;3.30;;;5.10;99.90;;;;;;5058783;28;20200;-80
2022/04/03 13:51:08;;;;;;;3.93;3.53;;;4.60;99.90;;;;;;5058992;28;20169;-80
2022/04/03 13:53:34;;;;;;;3.37;3.07;;;4.00;99.90;;;;;;5058579;28;20205;-85
2022/04/03 13:56:02;;;;;;;3.60;3.30;;;3.50;99.90;;;;;;5059643;28;20201;-79
2022/04/03 13:58:28;;;;;;;3.73;2.93;;;3.20;99.90;;;;;;5061636;28;20208;-83
2022/04/03 14:00:58;;;;;;;5.47;3.40;;;2.80;99.90;;;;;;5060039;28;20182;-84
2022/04/03 14:03:25;;;;;;;4.47;4.00;;;2.90;99.90;;;;;;5061449;28;20223;-82
2022/04/03 14:05:51;;;;;;;4.43;3.67;;;3.00;99.90;;;;;;5056826;28;20178;-81
2022/04/03 14:08:17;;;;;;;5.00;3.63;;;3.10;99.90;;;;;;5057039;28;20559;-81
2022/04/03 14:10:47;;;;;;;4.80;4.20;;;3.20;99.90;;;;;;5058471;28;20189;-82
2022/04/03 14:13:21;;;;;;;4.23;3.67;;;4.00;99.90;;;;;;5058547;28;20186;-82
2022/04/03 14:15:47;;;;;;;5.73;4.23;;;4.10;99.90;;;;;;5059969;28;20161;-82
2022/04/03 14:18:15;;;;;;;7.57;4.87;;;4.70;99.90;;;;;;5059271;28;20268;-83
2022/04/03 14:20:41;;;;;;;8.70;5.30;;;5.30;99.90;;;;;;5060090;28;20174;-81
2022/04/03 14:23:06;;;;;;;5.10;4.03;;;6.50;99.90;;;;;;5062382;28;20200;-81
2022/04/03 14:25:32;;;;;;;6.93;3.67;;;;;;;;;;5061749;28;20165;-81
2022/04/03 14:27:59;;;;;;;5.60;4.87;;;7.60;99.90;;;;;;5059260;28;20216;-81
2022/04/03 14:30:25;;;;;;;5.07;4.57;;;7.70;99.90;;;;;;5057628;28;20189;-83
2022/04/03 14:32:52;;;;;;;6.33;3.93;;;7.80;97.20;;;;;;5058695;28;20180;-82
2022/04/03 14:35:19;;;;;;;6.10;4.23;;;7.80;99.90;;;;;;5057801;28;20275;-80
2022/04/03 14:37:45;;;;;;;8.10;5.90;;;8.10;98.60;;;;;;5056661;28;20802;-82
2022/04/03 14:40:13;;;;;;;11.10;6.03;;;7.90;95.80;;;;;;5057644;28;20180;-81
2022/04/03 14:42:40;;;;;;;6.13;5.03;;;7.60;96.70;;;;;;5057502;28;20178;-80
2022/04/03 14:45:07;;;;;;;5.50;4.67;;;7.80;98.90;;;;;;5059248;28;20685;-80
2022/04/03 14:47:33;;;;;;;3.43;3.13;;;6.80;98.10;;;;;;5058221;28;20197;-81
2022/04/03 14:50:02;;;;;;;13.13;10.10;;;6.70;97.90;;;;;;5053894;28;20314;-76
2022/04/03 14:52:28;;;;;;;5.73;4.87;;;6.40;99.90;;;;;;5056120;28;20235;-81
2022/04/03 14:54:54;;;;;;;4.93;3.90;;;7.80;98.80;;;;;;5058121;28;20180;-81
2022/04/03 14:57:20;;;;;;;7.97;5.27;;;8.00;95.50;;;;;;5059498;28;20201;-81
2022/04/03 14:59:46;;;;;;;3.80;3.27;;;8.00;96.90;;;;;;5062754;28;20177;-81
2022/04/03 15:02:12;;;;;;;6.50;5.77;;;;;;;;;;5065413;28;20192;-81
2022/04/03 15:04:37;;;;;;;5.33;4.20;;;5.50;98.20;;;;;;5065619;28;20212;-80
2022/04/03 15:07:06;;;;;;;3.77;2.90;;;5.60;99.00;;;;;;5071905;28;20173;-81
2022/04/03 15:09:31;;;;;;;3.50;3.20;;;4.20;99.90;;;;;;5070849;28;20224;-81
2022/04/03 15:12:07;;;;;;;5.80;3.90;;;3.60;99.90;;;;;;5068533;28;20181;-82
2022/04/03 15:14:33;;;;;;;5.83;4.77;;;3.20;99.90;;;;;;5070821;28;20196;-82
2022/04/03 15:17:00;;;;;;;6.60;5.73;;;2.70;99.90;;;;;;5069217;28;20229;-82
2022/04/03 15:19:26;;;;;;;15.10;10.87;;;2.40;99.90;;;;;;5070415;28;20199;-82
2022/04/03 15:21:53;;;;;;;10.17;8.33;;;2.40;99.90;;;;;;5069783;28;20154;-82
2022/04/03 15:24:19;;;;;;;7.73;6.80;;;2.20;99.90;;;;;;5068725;28;20258;-82
2022/04/03 15:26:48;;;;;;;21.27;18.97;;;2.10;99.90;;;;;;5061952;28;20569;-79
2022/04/03 15:29:14;;;;;;;4.37;3.97;;;2.10;99.90;;;;;;5063772;28;20192;-82
2022/04/03 15:31:41;;;;;;;5.70;4.87;;;2.40;99.90;;;;;;5061768;28;20179;-80
2022/04/03 15:34:07;;;;;;;5.37;4.83;;;;;;;;;;5061281;28;20219;-84
2022/04/03 15:36:33;;;;;;;4.67;4.17;;;;;;;;;;5066662;28;20257;-85
2022/04/03 15:39:08;;;;;;;7.83;5.00;;;1.80;99.90;;;;;;5065474;28;20227;-79
2022/04/03 15:41:34;;;;;;;6.73;4.77;;;;;;;;;;5073997;28;20203;-80
2022/04/03 15:44:00;;;;;;;6.23;4.73;;;1.70;99.90;;;;;;5074166;28;20222;-79
2022/04/03 15:46:26;;;;;;;6.60;5.77;;;1.70;99.90;;;;;;5070103;28;20237;-84
2022/04/03 15:48:52;;;;;;;7.03;4.60;;;1.60;99.90;;;;;;5063328;28;20225;-83
2022/04/03 15:51:22;;;;;;;7.83;4.37;;;;;;;;;;5062651;28;20677;-82
2022/04/03 15:53:52;;;;;;;6.53;5.23;;;1.80;99.90;;;;;;5066031;28;20174;-83
2022/04/03 15:56:19;;;;;;;5.10;4.60;;;1.80;99.90;;;;;;5064192;28;20576;-82
2022/04/03 15:58:45;;;;;;;4.87;4.40;;;;;;;;;;5062451;28;20221;-81
2022/04/03 16:01:11;;;;;;;5.33;4.43;;;;;;;;;;5059995;28;20178;-81
2022/04/03 16:03:37;;;;;;;5.20;4.70;;;;;;;;;;5063638;28;20186;-82
2022/04/03 16:06:04;;;;;;;8.57;4.73;;;2.50;99.90;;;;;;5062567;28;20209;-82
2022/04/03 16:08:30;;;;;;;4.73;4.33;;;;;;;;;;5066543;28;20193;-81
2022/04/03 16:10:56;;;;;;;6.33;3.00;;;;;;;;;;5066284;28;20184;-81
2022/04/03 16:13:23;;;;;;;3.97;3.50;;;;;;;;;;5065104;28;20665;-82
2022/04/03 16:15:49;;;;;;;3.90;3.00;;;1.90;99.90;;;;;;5065531;28;20192;-78
2022/04/03 16:18:15;;;;;;;3.40;3.10;;;1.80;99.90;;;;;;5065905;28;20209;-81
2022/04/03 16:20:41;;;;;;;4.57;3.53;;;1.70;99.90;;;;;;5068399;28;20635;-81
2022/04/03 16:23:07;;;;;;;4.10;3.60;;;;;;;;;;5072105;28;20188;-82
2022/04/03 16:25:33;;;;;;;5.87;4.00;;;;;;;;;;5073101;28;20178;-83
2022/04/03 16:27:59;;;;;;;4.20;3.53;;;;;;;;;;5064266;28;20197;-81
2022/04/03 16:30:25;;;;;;;4.13;3.20;;;;;;;;;;5065939;28;20181;-83
2022/04/03 16:32:53;;;;;;;4.37;3.43;;;;;;;;;;5064997;28;20287;-82
2022/04/03 16:35:19;;;;;;;7.33;3.20;;;;;;;;;;5064670;28;20228;-82
2022/04/03 16:37:45;;;;;;;3.40;3.10;;;1.40;99.90;;;;;;5066488;28;20222;-82
2022/04/03 16:40:12;;;;;;;5.50;3.67;;;1.20;99.90;;;;;;5065210;28;20174;-82
2022/04/03 16:42:39;;;;;;;4.93;3.13;;;1.00;99.90;;;;;;5064113;28;20227;-81
2022/04/03 16:45:06;;;;;;;4.93;4.10;;;1.00;99.90;;;;;;5064676;28;20416;-81
2022/04/03 16:47:35;;;;;;;5.83;4.70;;;1.00;99.90;;;;;;5063902;28;20205;-80
2022/04/03 16:50:01;;;;;;;10.43;8.03;;;0.90;99.90;;;;;;5065345;28;20182;-82
2022/04/03 16:52:27;;;;;;;7.07;4.93;;;1.00;99.90;;;;;;5067948;28;20182;-82
2022/04/03 16:54:53;;;;;;;5.07;4.47;;;0.90;99.90;;;;;;5060934;28;20420;-81
2022/04/03 16:57:18;;;;;;;6.30;5.00;;;0.90;99.90;;;;;;5063064;28;20201;-80
2022/04/03 16:59:48;;;;;;;3.90;3.50;;;0.80;99.90;;;;;;5063287;28;20165;-77
2022/04/03 17:02:17;;;;;;;8.47;4.17;;;2.20;99.90;;;;;;5061432;28;20185;-80
2022/04/03 17:04:43;;;;;;;4.03;3.60;;;0.70;99.90;;;;;;5064067;28;20180;-82
2022/04/03 17:07:10;;;;;;;4.80;3.87;;;1.20;99.90;;;;;;5064796;28;20443;-82
2022/04/03 17:09:36;;;;;;;5.00;4.00;;;0.70;99.90;;;;;;5063259;28;20598;-82
2022/04/03 17:12:02;;;;;;;8.00;5.03;;;0.60;99.90;;;;;;5064218;28;20181;-82
2022/04/03 17:14:28;;;;;;;4.83;4.20;;;0.70;99.90;;;;;;5063594;28;20424;-81
2022/04/03 17:16:55;;;;;;;6.07;4.20;;;0.90;99.90;;;;;;5063085;28;20277;-82
2022/04/03 17:19:21;;;;;;;5.30;4.03;;;1.60;99.90;;;;;;5064011;28;20204;-82
2022/04/03 17:21:47;;;;;;;22.20;13.43;;;0.60;99.90;;;;;;5062508;28;20416;-81
2022/04/03 17:24:12;;;;;;;63.17;27.17;;;1.20;99.90;;;;;;5061126;28;20210;-81
2022/04/03 17:26:38;;;;;;;77.13;33.10;;;0.40;99.90;;;;;;5061431;28;20221;-81
2022/04/03 17:29:04;;;;;;;17.13;10.27;;;0.50;99.90;;;;;;5062610;28;20197;-80
2022/04/03 17:31:29;;;;;;;10.43;6.80;;;0.40;99.90;;;;;;5062926;28;20181;-81
2022/04/03 17:33:55;;;;;;;7.43;6.43;;;0.50;99.90;;;;;;5064056;28;20178;-81
2022/04/03 17:36:22;;;;;;;8.53;7.73;;;0.40;99.90;;;;;;5061861;28;20197;-80
2022/04/03 17:38:48;;;;;;;6.17;5.57;;;;;;;;;;5060362;28;20213;-81
2022/04/03 17:41:15;;;;;;;11.30;5.00;;;0.40;99.90;;;;;;5062234;28;20534;-81
2022/04/03 17:43:41;;;;;;;6.73;5.00;;;0.40;99.90;;;;;;5061286;28;20178;-80
2022/04/03 17:46:08;;;;;;;5.10;4.50;;;0.40;99.90;;;;;;5061377;28;20769;-80
2022/04/03 17:48:34;;;;;;;4.93;4.40;;;0.40;99.90;;;;;;5060434;28;20201;-79
2022/04/03 17:51:00;;;;;;;6.80;3.80;;;0.40;99.90;;;;;;5062339;28;20447;-79
2022/04/03 17:53:26;;;;;;;7.13;3.80;;;0.20;99.90;;;;;;5060702;28;20606;-80
2022/04/03 17:55:54;;;;;;;7.67;4.90;;;0.10;99.90;;;;;;5059116;28;20427;-79
2022/04/03 17:58:20;;;;;;;7.77;4.83;;;0.10;99.90;;;;;;5057809;28;20468;-79
2022/04/03 18:00:46;;;;;;;8.67;4.23;;;0.10;99.90;;;;;;5059354;28;20913;-80
2022/04/03 18:03:13;;;;;;;7.10;5.03;;;0.10;99.90;;;;;;5059198;28;20154;-80
2022/04/03 18:05:39;;;;;;;8.50;5.50;;;0.60;99.90;;;;;;5060262;28;20480;-80
2022/04/03 18:08:05;;;;;;;5.90;4.63;;;0.10;99.90;;;;;;5059695;28;20462;-80
2022/04/03 18:10:32;;;;;;;7.10;4.73;;;0.10;99.90;;;;;;5060340;28;20409;-80
2022/04/03 18:12:58;;;;;;;6.20;4.67;;;0.10;99.90;;;;;;5059073;28;20244;-80
2022/04/03 18:15:25;;;;;;;5.53;4.17;;;0.10;99.90;;;;;;5059986;28;20469;-79
2022/04/03 18:17:52;;;;;;;5.03;3.77;;;0.00;99.90;;;;;;5060112;28;20486;-80
2022/04/03 18:20:23;;;;;;;4.13;3.73;;;0.10;99.90;;;;;;5058798;28;20427;-80
2022/04/03 18:22:49;;;;;;;4.43;3.40;;;0.20;99.90;;;;;;5058008;28;20416;-79
2022/04/03 18:25:15;;;;;;;4.70;3.90;;;0.00;99.90;;;;;;5059035;28;20423;-78
2022/04/03 18:27:41;;;;;;;4.60;3.50;;;1.10;99.90;;;;;;5057570;28;20201;-80
2022/04/03 18:30:07;;;;;;;5.50;3.33;;;1.80;99.90;;;;;;5057378;28;20687;-79
2022/04/03 18:32:33;;;;;;;10.50;8.50;;;0.00;99.90;;;;;;5057979;28;20173;-79
2022/04/03 18:34:58;;;;;;;12.33;4.30;;;0.00;99.90;;;;;;5057517;28;20492;-79
2022/04/03 18:37:24;;;;;;;4.13;3.73;;;-0.10;99.90;;;;;;5059582;28;20666;-79
2022/04/03 18:39:52;;;;;;;7.33;6.30;;;-0.10;99.90;;;;;;5059376;28;20173;-79
2022/04/03 18:42:18;;;;;;;6.10;5.50;;;-0.10;99.90;;;;;;5058043;28;20264;-79
2022/04/03 18:44:45;;;;;;;6.57;5.10;;;0.00;99.90;;;;;;5058662;28;20878;-78
2022/04/03 18:47:11;;;;;;;6.37;4.40;;;-0.10;99.90;;;;;;5059344;28;20428;-79
2022/04/03 18:49:39;;;;;;;6.93;5.23;;;0.00;99.90;;;;;;5058713;28;20418;-79
2022/04/03 18:52:05;;;;;;;5.67;4.00;;;0.00;99.90;;;;;;5059414;28;20409;-78
2022/04/03 18:54:32;;;;;;;4.43;4.03;;;-0.10;99.90;;;;;;5059140;28;20415;-79
2022/04/03 18:56:57;;;;;;;5.17;4.00;;;0.00;99.90;;;;;;5058964;28;20459;-79
2022/04/03 18:59:25;;;;;;;5.40;3.80;;;0.00;99.90;;;;;;5058431;28;20439;-78
2022/04/03 19:01:54;;;;;;;6.33;4.80;;;-0.10;99.90;;;;;;5059178;28;20212;-79
2022/04/03 19:04:20;;;;;;;14.50;6.33;;;-0.10;99.90;;;;;;5058050;28;20420;-79
2022/04/03 19:06:47;;;;;;;8.77;6.37;;;-0.10;99.90;;;;;;5059851;28;20886;-79
2022/04/03 19:09:13;;;;;;;5.97;5.40;;;-0.10;99.90;;;;;;5060492;28;20432;-78
2022/04/03 19:11:39;;;;;;;6.23;4.53;;;-0.10;99.90;;;;;;5058683;28;20503;-80
2022/04/03 19:14:07;;;;;;;5.50;3.60;;;0.00;99.90;;;;;;5059105;28;20420;-79
2022/04/03 19:16:34;;;;;;;6.87;4.57;;;0.00;99.90;;;;;;5059811;28;20412;-78
2022/04/03 19:18:59;;;;;;;5.53;4.40;;;0.00;99.90;;;;;;5059592;28;20432;-78
2022/04/03 19:21:27;;;;;;;9.60;4.97;;;0.00;99.90;;;;;;5061792;28;20405;-79
2022/04/03 19:23:53;;;;;;;6.43;5.17;;;0.00;99.90;;;;;;5057276;28;20209;-78
2022/04/03 19:26:20;;;;;;;8.80;4.80;;;0.10;99.90;;;;;;5057929;28;20458;-78
2022/04/03 19:28:47;;;;;;;8.00;6.23;;;0.00;99.90;;;;;;5055897;28;20229;-78
2022/04/03 19:31:13;;;;;;;10.60;4.97;;;0.80;99.90;;;;;;5057813;28;20415;-78
2022/04/03 19:33:39;;;;;;;8.50;5.80;;;-0.10;99.90;;;;;;5056227;28;20419;-78
2022/04/03 19:36:06;;;;;;;7.50;4.33;;;-0.20;99.90;;;;;;5056321;28;20191;-78
2022/04/03 19:38:32;;;;;;;5.90;4.87;;;-0.20;99.90;;;;;;5056865;28;20267;-78
2022/04/03 19:40:58;;;;;;;9.17;5.33;;;-0.10;99.90;;;;;;5057296;28;20412;-78
2022/04/03 19:43:23;;;;;;;7.73;5.10;;;0.20;99.90;;;;;;5055313;28;20204;-77